createdAt,value
2017-09-21T00:00:04.818Z,933.23
2017-09-21T00:00:17.633Z,933.22
2017-09-21T00:00:30.558Z,933.21
2017-09-21T00:00:43.942Z,933.25
2017-09-21T00:00:56.805Z,933.19
2017-09-21T00:01:09.674Z,933.24
2017-09-21T00:01:23.100Z,933.23
2017-09-21T00:01:36.014Z,933.27
2017-09-21T00:01:48.895Z,933.21
2017-09-21T00:02:02.290Z,933.22
2017-09-21T00:02:15.146Z,933.2
2017-09-21T00:02:27.973Z,933.2
2017-09-21T00:02:41.364Z,933.23
2017-09-21T00:02:54.770Z,933.22
2017-09-21T00:03:06.559Z,933.26
2017-09-21T00:03:19.412Z,933.22
2017-09-21T00:03:32.352Z,933.19
2017-09-21T00:03:45.808Z,933.21
2017-09-21T00:03:58.099Z,933.23
2017-09-21T00:04:10.926Z,933.23
2017-09-21T00:04:24.016Z,933.21
2017-09-21T00:04:36.870Z,933.26
2017-09-21T00:04:50.295Z,933.22
2017-09-21T00:05:03.711Z,933.21
2017-09-21T00:05:16.535Z,933.2
2017-09-21T00:05:28.861Z,933.24
2017-09-21T00:05:41.206Z,933.2
2017-09-21T00:05:53.478Z,933.2
2017-09-21T00:06:06.908Z,933.22
2017-09-21T00:06:19.776Z,933.23
2017-09-21T00:06:32.633Z,933.22
2017-09-21T00:06:45.489Z,933.27
2017-09-21T00:06:58.871Z,933.26
2017-09-21T00:07:12.265Z,933.25
2017-09-21T00:07:25.640Z,933.25
2017-09-21T00:07:39.007Z,933.23
2017-09-21T00:07:51.881Z,933.26
2017-09-21T00:08:05.212Z,933.23
2017-09-21T00:08:18.642Z,933.24
2017-09-21T00:08:32.056Z,933.24
2017-09-21T00:08:44.398Z,933.26
2017-09-21T00:08:57.264Z,933.22
2017-09-21T00:09:10.780Z,933.24
2017-09-21T00:09:23.063Z,933.25
2017-09-21T00:09:35.464Z,933.24
2017-09-21T00:09:48.877Z,933.23
2017-09-21T00:10:01.223Z,933.28
2017-09-21T00:10:14.613Z,933.29
2017-09-21T00:10:27.486Z,933.25
2017-09-21T00:10:40.957Z,933.23
2017-09-21T00:10:54.302Z,933.24
2017-09-21T00:11:07.135Z,933.25
2017-09-21T00:11:19.465Z,933.27
2017-09-21T00:11:32.355Z,933.26
2017-09-21T00:11:45.791Z,933.26
2017-09-21T00:11:58.647Z,933.24
2017-09-21T00:12:12.025Z,933.24
2017-09-21T00:12:25.438Z,933.22
2017-09-21T00:12:38.909Z,933.24
2017-09-21T00:12:52.327Z,933.22
2017-09-21T00:13:05.711Z,933.25
2017-09-21T00:13:17.995Z,933.24
2017-09-21T00:13:30.819Z,933.23
2017-09-21T00:13:44.179Z,933.27
2017-09-21T00:13:57.562Z,933.25
2017-09-21T00:14:11.037Z,933.21
2017-09-21T00:14:23.931Z,933.22
2017-09-21T00:14:36.277Z,933.27
2017-09-21T00:14:49.637Z,933.21
2017-09-21T00:15:03.037Z,933.26
2017-09-21T00:15:15.857Z,933.25
2017-09-21T00:15:28.713Z,933.24
2017-09-21T00:15:41.065Z,933.21
2017-09-21T00:15:54.549Z,933.27
2017-09-21T00:16:07.906Z,933.24
2017-09-21T00:16:21.367Z,933.26
2017-09-21T00:16:34.733Z,933.24
2017-09-21T00:16:48.116Z,933.25
2017-09-21T00:17:00.966Z,933.19
2017-09-21T00:17:14.383Z,933.19
2017-09-21T00:17:27.750Z,933.2
2017-09-21T00:17:39.021Z,933.2
2017-09-21T00:17:51.871Z,933.19
2017-09-21T00:18:05.321Z,933.23
2017-09-21T00:18:18.208Z,933.21
2017-09-21T00:18:31.096Z,933.2
2017-09-21T00:18:43.374Z,933.24
2017-09-21T00:18:56.788Z,933.19
2017-09-21T00:19:10.401Z,933.2
2017-09-21T00:19:23.763Z,933.27
2017-09-21T00:19:36.640Z,933.24
2017-09-21T00:19:50.053Z,933.25
2017-09-21T00:20:03.448Z,933.26
2017-09-21T00:20:16.828Z,933.25
2017-09-21T00:20:29.667Z,933.24
2017-09-21T00:20:43.027Z,933.24
2017-09-21T00:20:56.395Z,933.23
2017-09-21T00:21:09.297Z,933.25
2017-09-21T00:21:22.690Z,933.24
2017-09-21T00:21:36.101Z,933.24
2017-09-21T00:21:48.963Z,933.23
2017-09-21T00:22:02.354Z,933.24
2017-09-21T00:22:15.741Z,933.25
2017-09-21T00:22:29.131Z,933.24
2017-09-21T00:22:42.482Z,933.25
2017-09-21T00:22:54.802Z,933.27
2017-09-21T00:23:07.596Z,933.26
2017-09-21T00:23:20.979Z,933.27
2017-09-21T00:23:33.305Z,933.25
2017-09-21T00:23:46.642Z,933.25
2017-09-21T00:23:59.461Z,933.26
2017-09-21T00:24:12.621Z,933.25
2017-09-21T00:24:26.177Z,933.28
2017-09-21T00:24:39.094Z,933.26
2017-09-21T00:24:52.482Z,933.24
2017-09-21T00:25:05.892Z,933.26
2017-09-21T00:25:19.339Z,933.25
2017-09-21T00:25:31.702Z,933.27
2017-09-21T00:25:45.027Z,933.28
2017-09-21T00:25:58.412Z,933.25
2017-09-21T00:26:11.767Z,933.27
2017-09-21T00:26:25.111Z,933.26
2017-09-21T00:26:37.975Z,933.27
2017-09-21T00:26:51.362Z,933.25
2017-09-21T00:27:04.220Z,933.22
2017-09-21T00:27:17.053Z,933.24
2017-09-21T00:27:29.940Z,933.26
2017-09-21T00:27:42.854Z,933.25
2017-09-21T00:27:55.660Z,933.28
2017-09-21T00:28:09.095Z,933.25
2017-09-21T00:28:22.528Z,933.25
2017-09-21T00:28:35.420Z,933.26
2017-09-21T00:28:48.280Z,933.26
2017-09-21T00:29:01.685Z,933.25
2017-09-21T00:29:14.577Z,933.3
2017-09-21T00:29:26.913Z,933.27
2017-09-21T00:29:39.206Z,933.26
2017-09-21T00:29:52.657Z,933.25
2017-09-21T00:30:05.526Z,933.28
2017-09-21T00:30:18.407Z,933.28
2017-09-21T00:30:31.751Z,933.27
2017-09-21T00:30:45.164Z,933.29
2017-09-21T00:30:58.535Z,933.24
2017-09-21T00:31:11.375Z,933.28
2017-09-21T00:31:23.712Z,933.3
2017-09-21T00:31:35.472Z,933.31
2017-09-21T00:31:48.831Z,933.32
2017-09-21T00:32:01.699Z,933.26
2017-09-21T00:32:14.617Z,933.31
2017-09-21T00:32:27.493Z,933.33
2017-09-21T00:32:41.372Z,933.32
2017-09-21T00:32:54.487Z,933.3
2017-09-21T00:33:07.391Z,933.29
2017-09-21T00:33:21.303Z,933.27
2017-09-21T00:33:35.153Z,933.29
2017-09-21T00:33:48.640Z,933.3
2017-09-21T00:34:02.328Z,933.31
2017-09-21T00:34:16.397Z,933.33
2017-09-21T00:34:28.961Z,933.27
2017-09-21T00:34:42.419Z,933.31
2017-09-21T00:34:56.051Z,933.27
2017-09-21T00:35:09.738Z,933.29
2017-09-21T00:35:23.049Z,933.29
2017-09-21T00:35:36.858Z,933.31
2017-09-21T00:35:49.954Z,933.27
2017-09-21T00:36:03.311Z,933.27
2017-09-21T00:36:17.395Z,933.28
2017-09-21T00:36:31.219Z,933.28
2017-09-21T00:36:44.362Z,933.28
2017-09-21T00:36:57.082Z,933.29
2017-09-21T00:37:10.915Z,933.25
2017-09-21T00:37:24.735Z,933.3
2017-09-21T00:37:37.617Z,933.26
2017-09-21T00:37:49.655Z,933.27
2017-09-21T00:38:02.040Z,933.26
2017-09-21T00:38:16.098Z,933.25
2017-09-21T00:38:30.160Z,933.24
2017-09-21T00:38:44.189Z,933.28
2017-09-21T00:38:58.266Z,933.24
2017-09-21T00:39:12.307Z,933.23
2017-09-21T00:39:25.463Z,933.26
2017-09-21T00:39:39.332Z,933.25
2017-09-21T00:39:53.152Z,933.26
2017-09-21T00:40:05.918Z,933.25
2017-09-21T00:40:19.368Z,933.25
2017-09-21T00:40:32.903Z,933.27
2017-09-21T00:40:47.159Z,933.24
2017-09-21T00:41:00.007Z,933.29
2017-09-21T00:41:13.641Z,933.29
2017-09-21T00:41:26.929Z,933.24
2017-09-21T00:41:40.249Z,933.26
2017-09-21T00:41:52.840Z,933.28
2017-09-21T00:42:05.445Z,933.26
2017-09-21T00:42:19.086Z,933.27
2017-09-21T00:42:32.938Z,933.28
2017-09-21T00:42:45.000Z,933.28
2017-09-21T00:42:59.030Z,933.27
2017-09-21T00:43:12.704Z,933.27
2017-09-21T00:43:26.254Z,933.23
2017-09-21T00:43:39.903Z,933.28
2017-09-21T00:43:53.172Z,933.27
2017-09-21T00:44:05.942Z,933.29
2017-09-21T00:44:18.941Z,933.26
2017-09-21T00:44:32.778Z,933.34
2017-09-21T00:44:46.452Z,933.33
2017-09-21T00:44:59.367Z,933.34
2017-09-21T00:45:12.587Z,933.33
2017-09-21T00:45:25.455Z,933.35
2017-09-21T00:45:39.318Z,933.36
2017-09-21T00:45:53.404Z,933.33
2017-09-21T00:46:05.964Z,933.27
2017-09-21T00:46:19.615Z,933.3
2017-09-21T00:46:33.283Z,933.3
2017-09-21T00:46:46.041Z,933.33
2017-09-21T00:46:59.561Z,933.35
2017-09-21T00:47:12.509Z,933.31
2017-09-21T00:47:26.375Z,933.31
2017-09-21T00:47:39.701Z,933.31
2017-09-21T00:47:53.891Z,933.34
2017-09-21T00:48:06.509Z,933.36
2017-09-21T00:48:19.570Z,933.31
2017-09-21T00:48:34.195Z,933.33
2017-09-21T00:48:48.049Z,933.3
2017-09-21T00:49:02.059Z,933.33
2017-09-21T00:49:16.282Z,933.33
2017-09-21T00:49:29.861Z,933.31
2017-09-21T00:49:43.469Z,933.32
2017-09-21T00:49:57.516Z,933.33
2017-09-21T00:50:11.013Z,933.31
2017-09-21T00:50:24.182Z,933.26
2017-09-21T00:50:37.515Z,933.3
2017-09-21T00:50:51.347Z,933.27
2017-09-21T00:51:05.178Z,933.31
2017-09-21T00:51:19.285Z,933.29
2017-09-21T00:51:32.764Z,933.31
2017-09-21T00:51:45.883Z,933.31
2017-09-21T00:51:58.286Z,933.25
2017-09-21T00:52:11.594Z,933.29
2017-09-21T00:52:24.739Z,933.28
2017-09-21T00:52:38.400Z,933.29
2017-09-21T00:52:52.059Z,933.29
2017-09-21T00:53:05.453Z,933.27
2017-09-21T00:53:18.575Z,933.28
2017-09-21T00:53:31.594Z,933.29
2017-09-21T00:53:45.264Z,933.29
2017-09-21T00:53:58.926Z,933.27
2017-09-21T00:54:12.248Z,933.27
2017-09-21T00:54:26.012Z,933.24
2017-09-21T00:54:39.848Z,933.23
2017-09-21T00:54:53.476Z,933.24
2017-09-21T00:55:06.604Z,933.25
2017-09-21T00:55:20.017Z,933.28
2017-09-21T00:55:33.862Z,933.29
2017-09-21T00:55:47.724Z,933.29
2017-09-21T00:56:01.319Z,933.26
2017-09-21T00:56:15.528Z,933.28
2017-09-21T00:56:28.454Z,933.26
2017-09-21T00:56:42.502Z,933.27
2017-09-21T00:56:56.977Z,933.25
2017-09-21T00:57:10.285Z,933.24
2017-09-21T00:57:23.992Z,933.25
2017-09-21T00:57:37.341Z,933.29
2017-09-21T00:57:51.204Z,933.27
2017-09-21T00:58:05.639Z,933.3
2017-09-21T00:58:19.323Z,933.3
2017-09-21T00:58:32.695Z,933.28
2017-09-21T00:58:46.157Z,933.27
2017-09-21T00:58:59.850Z,933.29
2017-09-21T00:59:13.216Z,933.3
2017-09-21T00:59:27.322Z,933.31
2017-09-21T00:59:39.790Z,933.33
2017-09-21T00:59:53.814Z,933.31
2017-09-21T01:00:07.764Z,933.33
2017-09-21T01:00:21.642Z,933.29
2017-09-21T01:00:34.815Z,933.3
2017-09-21T01:00:48.730Z,933.36
2017-09-21T01:01:02.607Z,933.29
2017-09-21T01:01:16.452Z,933.29
2017-09-21T01:01:30.615Z,933.32
2017-09-21T01:01:44.905Z,933.28
2017-09-21T01:01:58.760Z,933.3
2017-09-21T01:02:11.844Z,933.26
2017-09-21T01:02:25.733Z,933.33
2017-09-21T01:02:39.181Z,933.31
2017-09-21T01:02:52.804Z,933.29
2017-09-21T01:03:06.672Z,933.32
2017-09-21T01:03:20.961Z,933.3
2017-09-21T01:03:34.085Z,933.31
2017-09-21T01:03:47.929Z,933.33
2017-09-21T01:04:01.231Z,933.33
2017-09-21T01:04:14.580Z,933.32
2017-09-21T01:04:27.718Z,933.25
2017-09-21T01:04:41.934Z,933.29
2017-09-21T01:04:55.825Z,933.32
2017-09-21T01:05:08.983Z,933.35
2017-09-21T01:05:22.622Z,933.27
2017-09-21T01:05:36.453Z,933.27
2017-09-21T01:05:50.725Z,933.31
2017-09-21T01:06:04.759Z,933.26
2017-09-21T01:06:18.233Z,933.26
2017-09-21T01:06:32.071Z,933.26
2017-09-21T01:06:44.681Z,933.28
2017-09-21T01:06:58.307Z,933.24
2017-09-21T01:07:12.561Z,933.25
2017-09-21T01:07:25.321Z,933.26
2017-09-21T01:07:38.619Z,933.26
2017-09-21T01:07:52.109Z,933.25
2017-09-21T01:08:05.963Z,933.27
2017-09-21T01:08:19.269Z,933.23
2017-09-21T01:08:31.912Z,933.25
2017-09-21T01:08:45.050Z,933.24
2017-09-21T01:08:59.069Z,933.27
2017-09-21T01:09:11.825Z,933.24
2017-09-21T01:09:29.042Z,933.22
2017-09-21T01:09:41.834Z,933.26
2017-09-21T01:09:55.191Z,933.28
2017-09-21T01:10:09.032Z,933.28
2017-09-21T01:10:21.944Z,933.27
2017-09-21T01:10:35.274Z,933.28
2017-09-21T01:10:48.939Z,933.25
2017-09-21T01:11:02.455Z,933.26
2017-09-21T01:11:16.290Z,933.28
2017-09-21T01:11:29.889Z,933.24
2017-09-21T01:11:43.209Z,933.27
2017-09-21T01:11:56.866Z,933.29
2017-09-21T01:12:10.128Z,933.29
2017-09-21T01:12:23.257Z,933.28
2017-09-21T01:12:37.064Z,933.27
2017-09-21T01:12:50.925Z,933.33
2017-09-21T01:13:04.582Z,933.29
2017-09-21T01:13:18.138Z,933.29
2017-09-21T01:13:31.484Z,933.32
2017-09-21T01:13:45.334Z,933.33
2017-09-21T01:13:59.428Z,933.28
2017-09-21T01:14:12.742Z,933.28
2017-09-21T01:14:26.260Z,933.29
2017-09-21T01:14:39.917Z,933.28
2017-09-21T01:14:53.804Z,933.28
2017-09-21T01:15:08.057Z,933.27
2017-09-21T01:15:20.521Z,933.3
2017-09-21T01:15:33.669Z,933.3
2017-09-21T01:15:46.824Z,933.28
2017-09-21T01:16:00.877Z,933.29
2017-09-21T01:16:14.957Z,933.29
2017-09-21T01:16:28.637Z,933.25
2017-09-21T01:16:42.475Z,933.29
2017-09-21T01:16:56.519Z,933.29
2017-09-21T01:17:10.335Z,933.28
2017-09-21T01:17:24.171Z,933.3
2017-09-21T01:17:37.052Z,933.27
2017-09-21T01:17:51.120Z,933.29
2017-09-21T01:18:04.476Z,933.3
2017-09-21T01:18:18.897Z,933.28
2017-09-21T01:18:32.934Z,933.3
2017-09-21T01:18:47.358Z,933.3
2017-09-21T01:19:01.237Z,933.3
2017-09-21T01:19:15.076Z,933.31
2017-09-21T01:19:28.786Z,933.29
2017-09-21T01:19:42.725Z,933.28
2017-09-21T01:19:56.356Z,933.28
2017-09-21T01:20:09.455Z,933.26
2017-09-21T01:20:22.236Z,933.26
2017-09-21T01:20:36.535Z,933.33
2017-09-21T01:20:50.362Z,933.29
2017-09-21T01:21:03.450Z,933.28
2017-09-21T01:21:17.343Z,933.25
2017-09-21T01:21:30.486Z,933.26
2017-09-21T01:21:43.780Z,933.24
2017-09-21T01:21:58.185Z,933.25
2017-09-21T01:22:12.208Z,933.26
2017-09-21T01:22:25.853Z,933.25
2017-09-21T01:22:39.389Z,933.25
2017-09-21T01:22:53.422Z,933.21
2017-09-21T01:23:07.012Z,933.25
2017-09-21T01:23:20.293Z,933.23
2017-09-21T01:23:34.385Z,933.25
2017-09-21T01:23:47.304Z,933.21
2017-09-21T01:24:00.844Z,933.19
2017-09-21T01:24:14.681Z,933.22
2017-09-21T01:24:28.224Z,933.19
2017-09-21T01:24:42.468Z,933.2
2017-09-21T01:24:55.920Z,933.23
2017-09-21T01:25:09.937Z,933.21
2017-09-21T01:25:24.148Z,933.22
2017-09-21T01:25:37.330Z,933.19
2017-09-21T01:25:50.671Z,933.23
2017-09-21T01:26:03.589Z,933.2
2017-09-21T01:26:17.141Z,933.19
2017-09-21T01:26:30.095Z,933.18
2017-09-21T01:26:43.932Z,933.19
2017-09-21T01:26:57.473Z,933.19
2017-09-21T01:27:10.812Z,933.19
2017-09-21T01:27:24.177Z,933.19
2017-09-21T01:27:36.522Z,933.19
2017-09-21T01:27:49.941Z,933.2
2017-09-21T01:28:02.811Z,933.2
2017-09-21T01:28:15.659Z,933.17
2017-09-21T01:28:29.044Z,933.18
2017-09-21T01:28:40.807Z,933.2
2017-09-21T01:28:54.225Z,933.17
2017-09-21T01:29:07.575Z,933.19
2017-09-21T01:29:20.872Z,933.19
2017-09-21T01:29:33.173Z,933.18
2017-09-21T01:29:46.562Z,933.2
2017-09-21T01:29:59.403Z,933.17
2017-09-21T01:30:12.776Z,933.17
2017-09-21T01:30:25.604Z,933.17
2017-09-21T01:30:37.971Z,933.19
2017-09-21T01:30:50.840Z,933.18
2017-09-21T01:31:03.164Z,933.17
2017-09-21T01:31:16.575Z,933.14
2017-09-21T01:31:29.922Z,933.18
2017-09-21T01:31:43.308Z,933.14
2017-09-21T01:31:56.164Z,933.16
2017-09-21T01:32:09.047Z,933.19
2017-09-21T01:32:22.410Z,933.16
2017-09-21T01:32:35.224Z,933.14
2017-09-21T01:32:48.562Z,933.14
2017-09-21T01:33:01.936Z,933.16
2017-09-21T01:33:14.859Z,933.17
2017-09-21T01:33:27.224Z,933.15
2017-09-21T01:33:39.580Z,933.18
2017-09-21T01:33:52.423Z,933.22
2017-09-21T01:34:05.862Z,933.17
2017-09-21T01:34:19.267Z,933.16
2017-09-21T01:34:31.613Z,933.19
2017-09-21T01:34:44.937Z,933.19
2017-09-21T01:34:58.365Z,933.16
2017-09-21T01:35:11.261Z,933.15
2017-09-21T01:35:24.625Z,933.2
2017-09-21T01:35:36.930Z,933.19
2017-09-21T01:35:49.772Z,933.16
2017-09-21T01:36:03.115Z,933.15
2017-09-21T01:36:15.381Z,933.17
2017-09-21T01:36:28.748Z,933.17
2017-09-21T01:36:42.167Z,933.16
2017-09-21T01:36:54.489Z,933.15
2017-09-21T01:37:07.850Z,933.14
2017-09-21T01:37:20.740Z,933.11
2017-09-21T01:37:33.606Z,933.15
2017-09-21T01:37:46.994Z,933.14
2017-09-21T01:37:59.821Z,933.15
2017-09-21T01:38:12.621Z,933.16
2017-09-21T01:38:25.502Z,933.15
2017-09-21T01:38:38.831Z,933.13
2017-09-21T01:38:52.195Z,933.14
2017-09-21T01:39:05.025Z,933.12
2017-09-21T01:39:18.364Z,933.12
2017-09-21T01:39:31.175Z,933.15
2017-09-21T01:39:44.287Z,933.1
2017-09-21T01:39:57.103Z,933.12
2017-09-21T01:40:09.446Z,933.13
2017-09-21T01:40:22.836Z,933.14
2017-09-21T01:40:36.194Z,933.14
2017-09-21T01:40:49.016Z,933.11
2017-09-21T01:41:02.373Z,933.13
2017-09-21T01:41:15.760Z,933.1
2017-09-21T01:41:28.633Z,933.14
2017-09-21T01:41:41.531Z,933.13
2017-09-21T01:41:54.983Z,933.11
2017-09-21T01:42:08.425Z,933.11
2017-09-21T01:42:20.707Z,933.11
2017-09-21T01:42:34.077Z,933.14
2017-09-21T01:42:46.933Z,933.15
2017-09-21T01:43:00.568Z,933.12
2017-09-21T01:43:13.962Z,933.13
2017-09-21T01:43:26.852Z,933.13
2017-09-21T01:43:39.664Z,933.15
2017-09-21T01:43:53.082Z,933.09
2017-09-21T01:44:06.445Z,933.1
2017-09-21T01:44:19.283Z,933.11
2017-09-21T01:44:32.650Z,933.12
2017-09-21T01:44:46.120Z,933.09
2017-09-21T01:44:59.523Z,933.13
2017-09-21T01:45:11.909Z,933.09
2017-09-21T01:45:24.780Z,933.08
2017-09-21T01:45:38.168Z,933.1
2017-09-21T01:45:50.456Z,933.08
2017-09-21T01:46:03.864Z,933.08
2017-09-21T01:46:16.198Z,933.1
2017-09-21T01:46:29.616Z,933.09
2017-09-21T01:46:41.945Z,933.08
2017-09-21T01:46:54.251Z,933.09
2017-09-21T01:47:07.591Z,933.06
2017-09-21T01:47:21.004Z,933.06
2017-09-21T01:47:34.380Z,933.08
2017-09-21T01:47:46.714Z,933.05
2017-09-21T01:48:00.114Z,933.06
2017-09-21T01:48:12.400Z,933.06
2017-09-21T01:48:25.778Z,933.02
2017-09-21T01:48:39.202Z,933.05
2017-09-21T01:48:52.057Z,933.01
2017-09-21T01:49:04.898Z,933.04
2017-09-21T01:49:18.321Z,933.02
2017-09-21T01:49:31.198Z,933.03
2017-09-21T01:49:44.624Z,933.05
2017-09-21T01:49:58.193Z,933.04
2017-09-21T01:50:11.098Z,933.08
2017-09-21T01:50:24.003Z,933.04
2017-09-21T01:50:36.861Z,933.06
2017-09-21T01:50:49.731Z,933.08
2017-09-21T01:51:03.205Z,933.03
2017-09-21T01:51:16.612Z,933.05
2017-09-21T01:51:29.519Z,933.05
2017-09-21T01:51:42.340Z,933.08
2017-09-21T01:51:55.732Z,933.04
2017-09-21T01:52:08.633Z,933.07
2017-09-21T01:52:22.084Z,933.05
2017-09-21T01:52:34.926Z,933.04
2017-09-21T01:52:47.839Z,933.03
2017-09-21T01:53:00.209Z,933.04
2017-09-21T01:53:12.477Z,933.06
2017-09-21T01:53:24.811Z,933.04
2017-09-21T01:53:38.210Z,933.05
2017-09-21T01:53:50.546Z,933.04
2017-09-21T01:54:03.935Z,933.04
2017-09-21T01:54:16.798Z,932.99
2017-09-21T01:54:29.676Z,933.05
2017-09-21T01:54:42.533Z,932.99
2017-09-21T01:54:56.240Z,933.01
2017-09-21T01:55:09.614Z,933.01
2017-09-21T01:55:23.015Z,933.02
2017-09-21T01:55:35.350Z,932.97
2017-09-21T01:55:48.209Z,933.01
2017-09-21T01:56:01.183Z,932.96
2017-09-21T01:56:14.523Z,933.03
2017-09-21T01:56:27.961Z,932.97
2017-09-21T01:56:41.339Z,932.95
2017-09-21T01:56:54.712Z,932.98
2017-09-21T01:57:08.081Z,932.99
2017-09-21T01:57:21.459Z,933.01
2017-09-21T01:57:34.857Z,932.99
2017-09-21T01:57:47.712Z,932.98
2017-09-21T01:58:00.040Z,932.97
2017-09-21T01:58:12.911Z,932.97
2017-09-21T01:58:26.295Z,932.98
2017-09-21T01:58:39.618Z,933.01
2017-09-21T01:58:53.018Z,933.01
2017-09-21T01:59:04.800Z,932.97
2017-09-21T01:59:17.649Z,933
2017-09-21T01:59:31.029Z,932.98
2017-09-21T01:59:43.867Z,932.96
2017-09-21T01:59:57.000Z,932.98
2017-09-21T02:00:09.899Z,932.99
2017-09-21T02:00:23.315Z,933.02
2017-09-21T02:00:36.154Z,932.99
2017-09-21T02:00:49.557Z,933.04
2017-09-21T02:01:02.436Z,932.96
2017-09-21T02:01:15.765Z,933.01
2017-09-21T02:01:28.607Z,933.01
2017-09-21T02:01:42.054Z,933.01
2017-09-21T02:01:54.904Z,933.01
2017-09-21T02:02:07.754Z,933.01
2017-09-21T02:02:21.110Z,933
2017-09-21T02:02:33.948Z,933.01
2017-09-21T02:02:47.350Z,933
2017-09-21T02:03:00.249Z,933.02
2017-09-21T02:03:13.595Z,933
2017-09-21T02:03:26.979Z,933.02
2017-09-21T02:03:39.850Z,933
2017-09-21T02:03:52.725Z,933
2017-09-21T02:04:05.624Z,933.01
2017-09-21T02:04:18.973Z,933.01
2017-09-21T02:04:31.818Z,933
2017-09-21T02:04:45.197Z,933
2017-09-21T02:04:58.070Z,932.99
2017-09-21T02:05:10.934Z,933
2017-09-21T02:05:24.296Z,933
2017-09-21T02:05:37.677Z,933
2017-09-21T02:05:50.033Z,932.99
2017-09-21T02:06:04.884Z,932.98
2017-09-21T02:06:17.787Z,933
2017-09-21T02:06:30.689Z,932.95
2017-09-21T02:06:43.523Z,932.94
2017-09-21T02:06:56.918Z,932.92
2017-09-21T02:07:09.271Z,932.93
2017-09-21T02:07:22.103Z,932.95
2017-09-21T02:07:35.533Z,932.96
2017-09-21T02:07:48.897Z,932.92
2017-09-21T02:08:02.283Z,932.96
2017-09-21T02:08:15.143Z,932.94
2017-09-21T02:08:27.953Z,932.95
2017-09-21T02:08:40.264Z,932.92
2017-09-21T02:08:53.629Z,932.95
2017-09-21T02:09:05.620Z,932.94
2017-09-21T02:09:18.960Z,932.95
2017-09-21T02:09:32.385Z,932.94
2017-09-21T02:09:45.266Z,932.96
2017-09-21T02:09:58.841Z,932.94
2017-09-21T02:10:12.223Z,932.99
2017-09-21T02:10:25.062Z,932.97
2017-09-21T02:10:38.457Z,932.98
2017-09-21T02:10:51.822Z,932.97
2017-09-21T02:11:05.229Z,932.95
2017-09-21T02:11:18.114Z,933
2017-09-21T02:11:30.955Z,932.98
2017-09-21T02:11:44.077Z,932.97
2017-09-21T02:11:57.452Z,932.93
2017-09-21T02:12:10.862Z,932.96
2017-09-21T02:12:23.654Z,932.94
2017-09-21T02:12:37.031Z,932.95
2017-09-21T02:12:49.338Z,932.94
2017-09-21T02:13:02.766Z,932.93
2017-09-21T02:13:14.557Z,932.92
2017-09-21T02:13:27.347Z,932.94
2017-09-21T02:13:40.255Z,932.97
2017-09-21T02:13:53.550Z,932.93
2017-09-21T02:14:05.354Z,932.94
2017-09-21T02:14:17.637Z,932.93
2017-09-21T02:14:31.000Z,932.91
2017-09-21T02:14:44.459Z,932.92
2017-09-21T02:14:57.449Z,932.94
2017-09-21T02:15:09.810Z,932.9
2017-09-21T02:15:23.497Z,932.9
2017-09-21T02:15:35.829Z,932.91
2017-09-21T02:15:49.164Z,932.91
2017-09-21T02:16:02.627Z,932.89
2017-09-21T02:16:15.469Z,932.86
2017-09-21T02:16:28.794Z,932.91
2017-09-21T02:16:41.559Z,932.91
2017-09-21T02:16:54.458Z,932.92
2017-09-21T02:17:07.837Z,932.86
2017-09-21T02:17:21.212Z,932.91
2017-09-21T02:17:34.032Z,932.89
2017-09-21T02:17:46.825Z,932.91
2017-09-21T02:18:00.239Z,932.88
2017-09-21T02:18:13.098Z,932.91
2017-09-21T02:18:25.980Z,932.88
2017-09-21T02:18:38.876Z,932.88
2017-09-21T02:18:51.683Z,932.89
2017-09-21T02:19:04.564Z,932.89
2017-09-21T02:19:16.868Z,932.88
2017-09-21T02:19:30.291Z,932.88
2017-09-21T02:19:43.111Z,932.9
2017-09-21T02:19:56.565Z,932.89
2017-09-21T02:20:09.609Z,932.87
2017-09-21T02:20:21.977Z,932.89
2017-09-21T02:20:34.804Z,932.9
2017-09-21T02:20:47.658Z,932.91
2017-09-21T02:21:00.990Z,932.86
2017-09-21T02:21:13.844Z,932.87
2017-09-21T02:21:27.206Z,932.84
2017-09-21T02:21:40.094Z,932.85
2017-09-21T02:21:53.458Z,932.87
2017-09-21T02:22:06.293Z,932.84
2017-09-21T02:22:18.651Z,932.85
2017-09-21T02:22:32.061Z,932.84
2017-09-21T02:22:45.483Z,932.83
2017-09-21T02:22:58.324Z,932.85
2017-09-21T02:23:11.682Z,932.86
2017-09-21T02:23:25.088Z,932.84
2017-09-21T02:23:38.422Z,932.85
2017-09-21T02:23:51.784Z,932.82
2017-09-21T02:24:05.144Z,932.83
2017-09-21T02:24:18.502Z,932.82
2017-09-21T02:24:31.304Z,932.85
2017-09-21T02:24:44.697Z,932.84
2017-09-21T02:24:58.082Z,932.86
2017-09-21T02:25:12.282Z,932.81
2017-09-21T02:25:25.641Z,932.83
2017-09-21T02:25:39.032Z,932.81
2017-09-21T02:25:52.397Z,932.78
2017-09-21T02:26:05.789Z,932.79
2017-09-21T02:26:19.134Z,932.77
2017-09-21T02:26:30.918Z,932.81
2017-09-21T02:26:44.308Z,932.81
2017-09-21T02:26:57.690Z,932.81
2017-09-21T02:27:10.546Z,932.78
2017-09-21T02:27:23.940Z,932.79
2017-09-21T02:27:37.337Z,932.82
2017-09-21T02:27:50.719Z,932.8
2017-09-21T02:28:03.589Z,932.86
2017-09-21T02:28:17.046Z,932.86
2017-09-21T02:28:29.891Z,932.85
2017-09-21T02:28:43.343Z,932.84
2017-09-21T02:28:56.174Z,932.83
2017-09-21T02:29:09.524Z,932.84
2017-09-21T02:29:22.390Z,932.85
2017-09-21T02:29:35.243Z,932.88
2017-09-21T02:29:48.136Z,932.86
2017-09-21T02:30:01.537Z,932.85
2017-09-21T02:30:14.421Z,932.82
2017-09-21T02:30:27.821Z,932.84
2017-09-21T02:30:40.697Z,932.85
2017-09-21T02:30:54.084Z,932.86
2017-09-21T02:31:07.490Z,932.87
2017-09-21T02:31:20.842Z,932.85
2017-09-21T02:31:33.742Z,932.88
2017-09-21T02:31:46.646Z,932.9
2017-09-21T02:32:00.018Z,932.89
2017-09-21T02:32:12.873Z,932.91
2017-09-21T02:32:25.220Z,932.86
2017-09-21T02:32:37.585Z,932.89
2017-09-21T02:32:51.001Z,932.87
2017-09-21T02:33:04.355Z,932.89
2017-09-21T02:33:17.676Z,932.88
2017-09-21T02:33:31.042Z,932.86
2017-09-21T02:33:42.883Z,932.88
2017-09-21T02:33:55.733Z,932.9
2017-09-21T02:34:08.046Z,932.86
2017-09-21T02:34:21.481Z,932.84
2017-09-21T02:34:33.809Z,932.85
2017-09-21T02:34:46.189Z,932.88
2017-09-21T02:34:59.052Z,932.85
2017-09-21T02:35:12.460Z,932.89
2017-09-21T02:35:25.302Z,932.86
2017-09-21T02:35:38.179Z,932.89
2017-09-21T02:35:51.019Z,932.84
2017-09-21T02:36:03.944Z,932.87
2017-09-21T02:36:16.255Z,932.81
2017-09-21T02:36:28.697Z,932.85
2017-09-21T02:36:42.050Z,932.85
2017-09-21T02:36:54.863Z,932.88
2017-09-21T02:37:08.222Z,932.84
2017-09-21T02:37:21.630Z,932.87
2017-09-21T02:37:33.463Z,932.87
2017-09-21T02:37:46.857Z,932.86
2017-09-21T02:38:00.277Z,932.85
2017-09-21T02:38:13.153Z,932.83
2017-09-21T02:38:26.012Z,932.86
2017-09-21T02:38:38.851Z,932.85
2017-09-21T02:38:52.202Z,932.82
2017-09-21T02:39:05.616Z,932.88
2017-09-21T02:39:19.051Z,932.83
2017-09-21T02:39:32.464Z,932.83
2017-09-21T02:39:45.864Z,932.84
2017-09-21T02:39:59.280Z,932.84
2017-09-21T02:40:13.310Z,932.85
2017-09-21T02:40:26.176Z,932.8
2017-09-21T02:40:38.961Z,932.86
2017-09-21T02:40:51.797Z,932.82
2017-09-21T02:41:05.165Z,932.83
2017-09-21T02:41:18.606Z,932.86
2017-09-21T02:41:31.476Z,932.84
2017-09-21T02:41:44.363Z,932.84
2017-09-21T02:41:57.815Z,932.83
2017-09-21T02:42:10.705Z,932.84
2017-09-21T02:42:23.071Z,932.85
2017-09-21T02:42:35.896Z,932.85
2017-09-21T02:42:48.276Z,932.85
2017-09-21T02:43:01.120Z,932.87
2017-09-21T02:43:14.519Z,932.84
2017-09-21T02:43:27.390Z,932.82
2017-09-21T02:43:40.205Z,932.83
2017-09-21T02:43:53.054Z,932.84
2017-09-21T02:44:05.862Z,932.84
2017-09-21T02:44:18.731Z,932.83
2017-09-21T02:44:31.883Z,932.83
2017-09-21T02:44:44.791Z,932.82
2017-09-21T02:44:57.671Z,932.84
2017-09-21T02:45:09.569Z,932.8
2017-09-21T02:45:22.928Z,932.8